createdAt,value
2023-02-21T00:03:05.058Z,62.6
2023-02-21T00:08:05.061Z,62.7
2023-02-21T00:18:05.095Z,62.6
2023-02-21T00:28:05.067Z,62.8
2023-02-21T00:33:07.090Z,62.9
2023-02-21T00:53:05.094Z,62.8
2023-02-21T01:03:05.054Z,62.7
2023-02-21T01:08:05.074Z,63.2
2023-02-21T01:18:05.097Z,62.6
2023-02-21T01:28:05.064Z,62.7
2023-02-21T01:38:05.089Z,62.5
2023-02-21T01:48:05.062Z,62.6
2023-02-21T01:53:05.059Z,62.6
2023-02-21T02:08:05.093Z,62.8
2023-02-21T02:13:05.067Z,62.7
2023-02-21T02:18:05.085Z,62.6
2023-02-21T02:28:05.122Z,62.7
2023-02-21T02:38:05.148Z,62.7
2023-02-21T02:48:05.088Z,62.7
2023-02-21T02:53:05.080Z,62.7
2023-02-21T03:03:05.060Z,62.7
2023-02-21T03:13:05.106Z,62.7
2023-02-21T03:28:05.061Z,62.9
2023-02-21T03:33:05.085Z,62.7
2023-02-21T03:43:05.078Z,62.7
2023-02-21T03:48:05.087Z,62.8
2023-02-21T03:58:05.109Z,62.6
2023-02-21T04:08:05.087Z,62.6
2023-02-21T04:13:05.090Z,62.6
2023-02-21T04:23:05.195Z,62.6
2023-02-21T04:48:05.118Z,62.7
2023-02-21T04:58:05.091Z,62.7
2023-02-21T05:03:05.097Z,62.8
2023-02-21T05:13:05.109Z,62.7
2023-02-21T05:18:05.093Z,62.7
2023-02-21T05:28:05.100Z,62.7
2023-02-21T05:38:05.152Z,62.7
2023-02-21T05:48:05.131Z,62.9
2023-02-21T06:08:05.133Z,62.6
2023-02-21T06:18:05.087Z,62.7
2023-02-21T06:28:05.140Z,62.5
2023-02-21T06:38:05.085Z,62.4
2023-02-21T06:43:05.089Z,62.4
2023-02-21T06:48:05.123Z,62.6
2023-02-21T06:58:05.096Z,62.7
2023-02-21T07:03:05.091Z,62.7
2023-02-21T07:23:05.120Z,62.5
2023-02-21T07:33:05.104Z,62.6
2023-02-21T07:43:05.121Z,62.6
2023-02-21T07:48:05.099Z,62.6
2023-02-21T07:58:05.092Z,62.6
2023-02-21T08:03:05.119Z,62.8
2023-02-21T08:08:05.090Z,62.6
2023-02-21T08:13:05.085Z,62.6
2023-02-21T08:23:05.120Z,62.6
2023-02-21T08:43:05.113Z,62.9
2023-02-21T08:48:05.100Z,62.8
2023-02-21T08:58:05.092Z,62.9
2023-02-21T09:03:05.116Z,63
2023-02-21T09:13:05.096Z,62.9
2023-02-21T09:18:05.087Z,63.1
2023-02-21T09:23:05.115Z,63.3
2023-02-21T09:28:05.125Z,63.1
2023-02-21T09:33:05.097Z,63.4
2023-02-21T09:38:05.218Z,63.3
2023-02-21T10:03:05.160Z,63.4
2023-02-21T10:13:05.102Z,63.4
2023-02-21T10:23:05.132Z,63.6
2023-02-21T10:33:05.161Z,63.4
2023-02-21T10:43:05.122Z,63.2
2023-02-21T10:48:05.120Z,62.9
2023-02-21T10:53:05.148Z,62.7
2023-02-21T11:18:05.133Z,62.6
2023-02-21T11:28:05.111Z,62.6
2023-02-21T11:38:05.132Z,62.7
2023-02-21T11:43:05.122Z,62.7
2023-02-21T11:53:05.134Z,63.8
2023-02-21T12:03:05.129Z,63.3
2023-02-21T12:08:05.120Z,63.3
2023-02-21T12:18:05.104Z,63.3
2023-02-21T12:38:05.148Z,63.5
2023-02-21T12:48:05.109Z,63.5
2023-02-21T12:53:05.140Z,63.5
2023-02-21T12:58:05.139Z,63.7
2023-02-21T13:08:05.105Z,63.6
2023-02-21T13:13:05.112Z,63.5
2023-02-21T13:23:05.141Z,63.3
2023-02-21T13:33:05.124Z,63.3
2023-02-21T13:38:05.257Z,63.4
2023-02-21T13:53:05.197Z,63.8
2023-02-21T14:03:05.147Z,63.8
2023-02-21T14:08:05.148Z,63.8
2023-02-21T14:18:05.164Z,64.1
2023-02-21T14:23:05.137Z,64.3
2023-02-21T14:28:05.598Z,64
2023-02-21T14:38:05.162Z,64.2
2023-02-21T14:43:05.155Z,64.6
2023-02-21T14:48:05.174Z,65.2
2023-02-21T15:13:05.167Z,65.4
2023-02-21T15:18:05.165Z,65.1
2023-02-21T15:28:05.145Z,64.2
2023-02-21T15:38:05.166Z,64.3
2023-02-21T15:48:05.154Z,64.6
2023-02-21T15:53:05.144Z,64.8
2023-02-21T16:03:05.187Z,65.1
2023-02-21T16:13:05.137Z,65.1
2023-02-21T16:33:05.196Z,65.6
2023-02-21T16:43:05.211Z,65.6
2023-02-21T16:53:05.173Z,65.7
2023-02-21T17:03:05.139Z,65.9
2023-02-21T17:08:05.151Z,65.8
2023-02-21T17:18:05.172Z,66
2023-02-21T17:28:05.152Z,66.2
2023-02-21T17:33:05.165Z,66.6
2023-02-21T17:53:05.170Z,66.4
2023-02-21T17:58:05.164Z,66.5
2023-02-21T18:08:05.144Z,66.5
2023-02-21T18:18:06.998Z,66.4
2023-02-21T18:23:05.155Z,67
2023-02-21T18:28:05.176Z,66.3
2023-02-21T18:38:05.185Z,66.4
2023-02-21T18:48:05.160Z,66.4
2023-02-21T19:08:05.188Z,66.2
2023-02-21T19:13:05.196Z,66.2
2023-02-21T19:23:05.204Z,66.2
2023-02-21T19:33:05.198Z,66.2
2023-02-21T19:38:05.187Z,66.1
2023-02-21T19:48:05.183Z,66.1
2023-02-21T19:58:05.202Z,65.9
2023-02-21T20:03:05.198Z,65.9
2023-02-21T20:28:05.224Z,65.6
2023-02-21T20:38:05.191Z,65.7
2023-02-21T20:43:05.225Z,65.4
2023-02-21T20:53:05.221Z,65.2
2023-02-21T21:03:05.224Z,65.3
2023-02-21T21:08:05.238Z,65.3
2023-02-21T21:18:05.230Z,65
2023-02-21T21:23:05.213Z,65
2023-02-21T21:28:05.212Z,65.3
2023-02-21T21:48:05.253Z,65.3
2023-02-21T21:53:05.207Z,65.3
2023-02-21T21:58:05.223Z,65.3
2023-02-21T22:03:05.282Z,65.4
2023-02-21T22:13:05.233Z,65.4
2023-02-21T22:18:05.219Z,65.2
2023-02-21T22:28:05.225Z,65.2
2023-02-21T22:33:05.265Z,65.2
2023-02-21T22:43:05.235Z,65.3
2023-02-21T23:03:05.317Z,65.2
2023-02-21T23:13:05.307Z,64.9
2023-02-21T23:23:05.320Z,64.9
2023-02-21T23:33:05.285Z,64.8
2023-02-21T23:38:05.296Z,64.7
2023-02-21T23:48:05.317Z,64.4
2023-02-21T23:58:05.293Z,64.3
